sensor_id;sensor_type;location;lat;lon;timestamp;P1;durP1;ratioP1;P2;durP2;ratioP2
8803;SDS011;4438;50.890;4.726;2022-12-15T00:00:57;51.60;;;36.90;;
8803;SDS011;4438;50.890;4.726;2022-12-15T00:03:42;51.73;;;38.50;;
8803;SDS011;4438;50.890;4.726;2022-12-15T00:06:27;56.07;;;38.00;;
8803;SDS011;4438;50.890;4.726;2022-12-15T00:09:11;54.00;;;38.60;;
8803;SDS011;4438;50.890;4.726;2022-12-15T00:11:56;54.87;;;37.70;;
8803;SDS011;4438;50.890;4.726;2022-12-15T00:14:41;55.47;;;40.10;;
8803;SDS011;4438;50.890;4.726;2022-12-15T00:17:25;55.77;;;40.10;;
8803;SDS011;4438;50.890;4.726;2022-12-15T00:20:10;48.87;;;36.37;;
8803;SDS011;4438;50.890;4.726;2022-12-15T00:22:55;50.97;;;38.23;;
8803;SDS011;4438;50.890;4.726;2022-12-15T00:25:40;49.20;;;34.70;;
8803;SDS011;4438;50.890;4.726;2022-12-15T00:28:26;50.30;;;35.27;;
8803;SDS011;4438;50.890;4.726;2022-12-15T00:31:10;48.63;;;33.77;;
8803;SDS011;4438;50.890;4.726;2022-12-15T00:33:55;48.50;;;33.80;;
8803;SDS011;4438;50.890;4.726;2022-12-15T00:36:40;47.33;;;34.03;;
8803;SDS011;4438;50.890;4.726;2022-12-15T00:39:24;47.37;;;33.47;;
8803;SDS011;4438;50.890;4.726;2022-12-15T00:41:50;47.17;;;32.17;;
8803;SDS011;4438;50.890;4.726;2022-12-15T00:44:16;43.97;;;31.43;;
8803;SDS011;4438;50.890;4.726;2022-12-15T00:46:43;42.57;;;31.07;;
8803;SDS011;4438;50.890;4.726;2022-12-15T00:49:21;42.17;;;31.30;;
8803;SDS011;4438;50.890;4.726;2022-12-15T00:52:06;44.53;;;31.13;;
8803;SDS011;4438;50.890;4.726;2022-12-15T00:54:51;41.83;;;30.50;;
8803;SDS011;4438;50.890;4.726;2022-12-15T00:57:36;38.00;;;29.27;;
8803;SDS011;4438;50.890;4.726;2022-12-15T01:00:21;37.13;;;28.30;;
8803;SDS011;4438;50.890;4.726;2022-12-15T01:03:12;41.60;;;29.27;;
8803;SDS011;4438;50.890;4.726;2022-12-15T01:05:57;39.10;;;29.03;;
8803;SDS011;4438;50.890;4.726;2022-12-15T01:08:42;38.73;;;28.37;;
8803;SDS011;4438;50.890;4.726;2022-12-15T01:11:26;37.40;;;29.23;;
8803;SDS011;4438;50.890;4.726;2022-12-15T01:14:12;42.77;;;30.83;;
8803;SDS011;4438;50.890;4.726;2022-12-15T01:16:57;46.80;;;32.77;;
8803;SDS011;4438;50.890;4.726;2022-12-15T01:19:41;42.77;;;31.67;;
8803;SDS011;4438;50.890;4.726;2022-12-15T01:22:26;43.40;;;30.77;;
8803;SDS011;4438;50.890;4.726;2022-12-15T01:24:52;43.30;;;30.33;;
8803;SDS011;4438;50.890;4.726;2022-12-15T01:27:18;40.27;;;29.63;;
8803;SDS011;4438;50.890;4.726;2022-12-15T01:29:45;39.23;;;29.17;;
8803;SDS011;4438;50.890;4.726;2022-12-15T01:32:11;40.67;;;29.87;;
8803;SDS011;4438;50.890;4.726;2022-12-15T01:34:37;46.33;;;31.30;;
8803;SDS011;4438;50.890;4.726;2022-12-15T01:37:03;42.53;;;30.87;;
8803;SDS011;4438;50.890;4.726;2022-12-15T01:39:29;40.03;;;29.23;;
8803;SDS011;4438;50.890;4.726;2022-12-15T01:42:15;40.00;;;30.10;;
8803;SDS011;4438;50.890;4.726;2022-12-15T01:44:42;40.03;;;29.37;;
8803;SDS011;4438;50.890;4.726;2022-12-15T01:47:10;39.63;;;29.43;;
8803;SDS011;4438;50.890;4.726;2022-12-15T01:49:37;38.17;;;29.43;;
8803;SDS011;4438;50.890;4.726;2022-12-15T01:52:04;42.13;;;29.93;;
8803;SDS011;4438;50.890;4.726;2022-12-15T01:57:01;39.40;;;28.07;;
8803;SDS011;4438;50.890;4.726;2022-12-15T01:59:30;39.13;;;28.93;;
8803;SDS011;4438;50.890;4.726;2022-12-15T02:01:57;38.30;;;28.73;;
8803;SDS011;4438;50.890;4.726;2022-12-15T02:04:24;40.63;;;29.70;;
8803;SDS011;4438;50.890;4.726;2022-12-15T02:06:50;40.70;;;29.43;;
8803;SDS011;4438;50.890;4.726;2022-12-15T02:09:17;37.67;;;28.53;;
8803;SDS011;4438;50.890;4.726;2022-12-15T02:17:16;35.20;;;28.03;;
8803;SDS011;4438;50.890;4.726;2022-12-15T02:30:14;38.23;;;27.70;;
8803;SDS011;4438;50.890;4.726;2022-12-15T02:33:16;41.23;;;28.63;;
8803;SDS011;4438;50.890;4.726;2022-12-15T02:38:00;42.83;;;29.43;;
8803;SDS011;4438;50.890;4.726;2022-12-15T02:40:26;42.60;;;30.57;;
8803;SDS011;4438;50.890;4.726;2022-12-15T02:42:52;43.57;;;30.30;;
8803;SDS011;4438;50.890;4.726;2022-12-15T02:45:28;43.33;;;31.83;;
8803;SDS011;4438;50.890;4.726;2022-12-15T02:48:00;44.53;;;31.30;;
8803;SDS011;4438;50.890;4.726;2022-12-15T02:58:27;41.00;;;30.17;;
8803;SDS011;4438;50.890;4.726;2022-12-15T03:01:07;38.13;;;28.27;;
8803;SDS011;4438;50.890;4.726;2022-12-15T03:03:34;39.93;;;28.80;;
8803;SDS011;4438;50.890;4.726;2022-12-15T03:06:02;43.97;;;31.97;;
8803;SDS011;4438;50.890;4.726;2022-12-15T03:08:28;41.73;;;30.07;;
8803;SDS011;4438;50.890;4.726;2022-12-15T03:10:54;41.30;;;30.40;;
8803;SDS011;4438;50.890;4.726;2022-12-15T03:13:21;44.90;;;30.67;;
8803;SDS011;4438;50.890;4.726;2022-12-15T03:15:47;41.87;;;30.03;;
8803;SDS011;4438;50.890;4.726;2022-12-15T03:18:13;40.90;;;30.20;;
8803;SDS011;4438;50.890;4.726;2022-12-15T03:20:40;46.77;;;31.77;;
8803;SDS011;4438;50.890;4.726;2022-12-15T03:23:06;41.47;;;30.27;;
8803;SDS011;4438;50.890;4.726;2022-12-15T03:25:32;43.10;;;30.33;;
8803;SDS011;4438;50.890;4.726;2022-12-15T03:27:58;41.87;;;30.67;;
8803;SDS011;4438;50.890;4.726;2022-12-15T03:30:24;43.60;;;31.30;;
8803;SDS011;4438;50.890;4.726;2022-12-15T03:32:50;43.50;;;31.00;;
8803;SDS011;4438;50.890;4.726;2022-12-15T03:35:17;42.97;;;30.63;;
8803;SDS011;4438;50.890;4.726;2022-12-15T03:37:43;46.07;;;32.43;;
8803;SDS011;4438;50.890;4.726;2022-12-15T03:40:09;43.17;;;31.53;;
8803;SDS011;4438;50.890;4.726;2022-12-15T03:42:38;43.17;;;31.33;;
8803;SDS011;4438;50.890;4.726;2022-12-15T03:45:14;39.60;;;30.90;;
8803;SDS011;4438;50.890;4.726;2022-12-15T03:47:40;39.53;;;28.53;;
8803;SDS011;4438;50.890;4.726;2022-12-15T03:50:07;40.87;;;29.73;;
8803;SDS011;4438;50.890;4.726;2022-12-15T03:52:34;39.07;;;27.37;;
8803;SDS011;4438;50.890;4.726;2022-12-15T03:55:00;36.70;;;28.30;;
8803;SDS011;4438;50.890;4.726;2022-12-15T03:57:26;37.13;;;27.47;;
8803;SDS011;4438;50.890;4.726;2022-12-15T03:59:52;39.17;;;27.73;;
8803;SDS011;4438;50.890;4.726;2022-12-15T04:02:19;41.00;;;28.17;;
8803;SDS011;4438;50.890;4.726;2022-12-15T04:04:45;38.43;;;28.27;;
8803;SDS011;4438;50.890;4.726;2022-12-15T04:07:13;39.03;;;27.87;;
8803;SDS011;4438;50.890;4.726;2022-12-15T04:09:39;37.30;;;27.07;;
8803;SDS011;4438;50.890;4.726;2022-12-15T04:12:05;33.97;;;26.33;;
8803;SDS011;4438;50.890;4.726;2022-12-15T04:14:31;38.33;;;28.77;;
8803;SDS011;4438;50.890;4.726;2022-12-15T04:16:57;38.83;;;27.80;;
8803;SDS011;4438;50.890;4.726;2022-12-15T04:19:23;42.33;;;29.73;;
8803;SDS011;4438;50.890;4.726;2022-12-15T04:22:08;42.37;;;29.17;;
8803;SDS011;4438;50.890;4.726;2022-12-15T04:24:34;39.73;;;28.73;;
8803;SDS011;4438;50.890;4.726;2022-12-15T04:27:19;42.07;;;30.73;;
8803;SDS011;4438;50.890;4.726;2022-12-15T04:30:04;40.13;;;30.00;;
8803;SDS011;4438;50.890;4.726;2022-12-15T04:32:49;42.73;;;29.23;;
8803;SDS011;4438;50.890;4.726;2022-12-15T04:35:34;38.93;;;28.67;;
8803;SDS011;4438;50.890;4.726;2022-12-15T04:38:19;38.97;;;29.33;;
8803;SDS011;4438;50.890;4.726;2022-12-15T04:41:04;40.57;;;30.97;;
8803;SDS011;4438;50.890;4.726;2022-12-15T04:43:49;46.13;;;30.73;;
8803;SDS011;4438;50.890;4.726;2022-12-15T04:46:34;45.90;;;30.80;;
8803;SDS011;4438;50.890;4.726;2022-12-15T04:49:19;41.13;;;30.63;;
8803;SDS011;4438;50.890;4.726;2022-12-15T04:52:03;40.97;;;30.23;;
8803;SDS011;4438;50.890;4.726;2022-12-15T04:54:48;47.97;;;30.67;;
8803;SDS011;4438;50.890;4.726;2022-12-15T04:57:33;46.77;;;30.67;;
8803;SDS011;4438;50.890;4.726;2022-12-15T05:00:18;46.00;;;32.03;;
8803;SDS011;4438;50.890;4.726;2022-12-15T05:03:06;39.77;;;29.33;;
8803;SDS011;4438;50.890;4.726;2022-12-15T05:05:51;41.93;;;29.70;;
8803;SDS011;4438;50.890;4.726;2022-12-15T05:08:36;39.53;;;28.67;;
8803;SDS011;4438;50.890;4.726;2022-12-15T05:11:21;43.63;;;30.10;;
8803;SDS011;4438;50.890;4.726;2022-12-15T05:14:05;42.33;;;29.53;;
8803;SDS011;4438;50.890;4.726;2022-12-15T05:16:50;42.10;;;28.70;;
8803;SDS011;4438;50.890;4.726;2022-12-15T05:19:35;38.43;;;28.07;;
8803;SDS011;4438;50.890;4.726;2022-12-15T05:22:20;37.60;;;27.37;;
8803;SDS011;4438;50.890;4.726;2022-12-15T05:25:05;41.13;;;28.40;;
8803;SDS011;4438;50.890;4.726;2022-12-15T05:27:49;37.53;;;27.93;;
8803;SDS011;4438;50.890;4.726;2022-12-15T05:30:34;36.83;;;27.60;;
8803;SDS011;4438;50.890;4.726;2022-12-15T05:33:19;38.43;;;28.30;;
8803;SDS011;4438;50.890;4.726;2022-12-15T05:35:45;38.00;;;27.23;;
8803;SDS011;4438;50.890;4.726;2022-12-15T05:38:11;36.90;;;27.03;;
8803;SDS011;4438;50.890;4.726;2022-12-15T05:40:37;35.37;;;26.93;;
8803;SDS011;4438;50.890;4.726;2022-12-15T05:43:03;36.63;;;26.47;;
8803;SDS011;4438;50.890;4.726;2022-12-15T05:45:29;34.03;;;27.00;;
8803;SDS011;4438;50.890;4.726;2022-12-15T05:47:55;42.10;;;32.60;;
8803;SDS011;4438;50.890;4.726;2022-12-15T05:50:22;41.10;;;31.60;;
8803;SDS011;4438;50.890;4.726;2022-12-15T05:52:48;40.13;;;30.07;;
8803;SDS011;4438;50.890;4.726;2022-12-15T05:55:15;40.13;;;29.13;;
8803;SDS011;4438;50.890;4.726;2022-12-15T05:57:41;40.73;;;28.43;;
8803;SDS011;4438;50.890;4.726;2022-12-15T06:00:07;45.87;;;30.77;;
8803;SDS011;4438;50.890;4.726;2022-12-15T06:02:33;41.83;;;30.50;;
8803;SDS011;4438;50.890;4.726;2022-12-15T06:04:59;46.77;;;34.70;;
8803;SDS011;4438;50.890;4.726;2022-12-15T06:07:26;48.40;;;34.25;;
8803;SDS011;4438;50.890;4.726;2022-12-15T06:09:52;45.60;;;31.48;;
8803;SDS011;4438;50.890;4.726;2022-12-15T06:12:18;76.72;;;49.05;;
8803;SDS011;4438;50.890;4.726;2022-12-15T06:14:44;128.70;;;92.47;;
8803;SDS011;4438;50.890;4.726;2022-12-15T06:17:10;91.68;;;62.50;;
8803;SDS011;4438;50.890;4.726;2022-12-15T06:19:37;62.50;;;44.83;;
8803;SDS011;4438;50.890;4.726;2022-12-15T06:22:03;49.25;;;33.47;;
8803;SDS011;4438;50.890;4.726;2022-12-15T06:24:29;51.78;;;35.92;;
8803;SDS011;4438;50.890;4.726;2022-12-15T06:26:55;56.17;;;39.35;;
8803;SDS011;4438;50.890;4.726;2022-12-15T06:29:21;74.47;;;51.17;;
8803;SDS011;4438;50.890;4.726;2022-12-15T06:31:47;54.80;;;39.78;;
8803;SDS011;4438;50.890;4.726;2022-12-15T06:34:15;46.58;;;33.53;;
8803;SDS011;4438;50.890;4.726;2022-12-15T06:36:42;48.28;;;33.22;;
8803;SDS011;4438;50.890;4.726;2022-12-15T06:39:10;44.63;;;32.60;;
8803;SDS011;4438;50.890;4.726;2022-12-15T06:41:36;42.97;;;31.47;;
8803;SDS011;4438;50.890;4.726;2022-12-15T06:44:03;44.67;;;29.97;;
8803;SDS011;4438;50.890;4.726;2022-12-15T06:46:29;47.20;;;30.87;;
8803;SDS011;4438;50.890;4.726;2022-12-15T06:48:56;42.80;;;30.13;;
8803;SDS011;4438;50.890;4.726;2022-12-15T06:51:23;40.63;;;30.73;;
8803;SDS011;4438;50.890;4.726;2022-12-15T06:53:49;39.83;;;28.97;;
8803;SDS011;4438;50.890;4.726;2022-12-15T06:56:23;40.03;;;29.40;;
8803;SDS011;4438;50.890;4.726;2022-12-15T06:58:50;45.10;;;31.67;;
8803;SDS011;4438;50.890;4.726;2022-12-15T07:01:17;39.93;;;29.93;;
8803;SDS011;4438;50.890;4.726;2022-12-15T07:03:43;90.47;;;61.57;;
8803;SDS011;4438;50.890;4.726;2022-12-15T07:06:10;52.27;;;36.17;;
8803;SDS011;4438;50.890;4.726;2022-12-15T07:08:37;50.57;;;35.50;;
8803;SDS011;4438;50.890;4.726;2022-12-15T07:11:04;48.60;;;34.57;;
8803;SDS011;4438;50.890;4.726;2022-12-15T07:13:30;46.72;;;33.13;;
8803;SDS011;4438;50.890;4.726;2022-12-15T07:15:59;44.30;;;32.53;;
8803;SDS011;4438;50.890;4.726;2022-12-15T07:18:26;43.73;;;30.70;;
8803;SDS011;4438;50.890;4.726;2022-12-15T07:20:54;41.70;;;29.83;;
8803;SDS011;4438;50.890;4.726;2022-12-15T07:23:21;41.23;;;31.37;;
8803;SDS011;4438;50.890;4.726;2022-12-15T07:25:48;39.63;;;30.10;;
8803;SDS011;4438;50.890;4.726;2022-12-15T07:28:14;38.57;;;29.90;;
8803;SDS011;4438;50.890;4.726;2022-12-15T07:30:40;40.80;;;29.83;;
8803;SDS011;4438;50.890;4.726;2022-12-15T07:33:06;42.40;;;30.37;;
8803;SDS011;4438;50.890;4.726;2022-12-15T07:35:32;40.97;;;29.37;;
8803;SDS011;4438;50.890;4.726;2022-12-15T07:37:58;45.50;;;30.93;;
8803;SDS011;4438;50.890;4.726;2022-12-15T07:40:25;41.67;;;31.23;;
8803;SDS011;4438;50.890;4.726;2022-12-15T07:42:51;44.67;;;32.07;;
8803;SDS011;4438;50.890;4.726;2022-12-15T07:45:17;47.20;;;32.73;;
8803;SDS011;4438;50.890;4.726;2022-12-15T07:47:43;47.22;;;32.22;;
8803;SDS011;4438;50.890;4.726;2022-12-15T07:50:09;44.10;;;31.58;;
8803;SDS011;4438;50.890;4.726;2022-12-15T07:52:35;42.63;;;30.10;;
8803;SDS011;4438;50.890;4.726;2022-12-15T07:55:01;43.17;;;31.40;;
8803;SDS011;4438;50.890;4.726;2022-12-15T07:57:28;44.47;;;31.17;;
8803;SDS011;4438;50.890;4.726;2022-12-15T07:59:54;44.13;;;32.57;;
8803;SDS011;4438;50.890;4.726;2022-12-15T08:02:21;44.75;;;30.92;;
8803;SDS011;4438;50.890;4.726;2022-12-15T08:04:47;47.43;;;31.23;;
8803;SDS011;4438;50.890;4.726;2022-12-15T08:07:13;48.70;;;32.73;;
8803;SDS011;4438;50.890;4.726;2022-12-15T08:09:39;49.30;;;32.23;;
8803;SDS011;4438;50.890;4.726;2022-12-15T08:12:06;47.80;;;31.57;;
8803;SDS011;4438;50.890;4.726;2022-12-15T08:14:33;48.43;;;34.10;;
8803;SDS011;4438;50.890;4.726;2022-12-15T08:17:02;46.20;;;32.33;;
8803;SDS011;4438;50.890;4.726;2022-12-15T08:19:28;48.90;;;33.40;;
8803;SDS011;4438;50.890;4.726;2022-12-15T08:21:54;43.70;;;31.83;;
8803;SDS011;4438;50.890;4.726;2022-12-15T08:24:20;43.83;;;31.33;;
8803;SDS011;4438;50.890;4.726;2022-12-15T08:26:47;46.73;;;32.17;;
8803;SDS011;4438;50.890;4.726;2022-12-15T08:29:14;43.80;;;31.27;;
8803;SDS011;4438;50.890;4.726;2022-12-15T08:31:40;43.30;;;30.47;;
8803;SDS011;4438;50.890;4.726;2022-12-15T08:34:06;46.03;;;30.90;;
8803;SDS011;4438;50.890;4.726;2022-12-15T08:36:33;42.80;;;31.00;;
8803;SDS011;4438;50.890;4.726;2022-12-15T08:38:59;41.00;;;29.90;;
8803;SDS011;4438;50.890;4.726;2022-12-15T08:41:26;40.87;;;29.83;;
8803;SDS011;4438;50.890;4.726;2022-12-15T08:43:53;42.37;;;31.00;;
8803;SDS011;4438;50.890;4.726;2022-12-15T08:46:24;35.60;;;28.67;;
8803;SDS011;4438;50.890;4.726;2022-12-15T08:48:51;43.43;;;30.90;;
8803;SDS011;4438;50.890;4.726;2022-12-15T08:51:17;40.33;;;30.43;;
8803;SDS011;4438;50.890;4.726;2022-12-15T08:53:43;37.27;;;29.67;;
8803;SDS011;4438;50.890;4.726;2022-12-15T08:56:11;44.30;;;30.80;;
8803;SDS011;4438;50.890;4.726;2022-12-15T08:58:37;68.97;;;35.33;;
8803;SDS011;4438;50.890;4.726;2022-12-15T09:01:04;68.60;;;34.53;;
8803;SDS011;4438;50.890;4.726;2022-12-15T09:03:33;61.83;;;32.83;;
8803;SDS011;4438;50.890;4.726;2022-12-15T09:06:06;48.03;;;30.67;;
8803;SDS011;4438;50.890;4.726;2022-12-15T09:08:34;51.63;;;31.63;;
8803;SDS011;4438;50.890;4.726;2022-12-15T09:11:00;43.80;;;32.07;;
8803;SDS011;4438;50.890;4.726;2022-12-15T09:13:27;44.73;;;29.87;;
8803;SDS011;4438;50.890;4.726;2022-12-15T09:15:58;43.87;;;31.00;;
8803;SDS011;4438;50.890;4.726;2022-12-15T09:18:24;43.87;;;31.20;;
8803;SDS011;4438;50.890;4.726;2022-12-15T09:20:50;43.77;;;31.97;;
8803;SDS011;4438;50.890;4.726;2022-12-15T09:23:18;42.80;;;31.33;;
8803;SDS011;4438;50.890;4.726;2022-12-15T09:25:44;50.33;;;33.57;;
8803;SDS011;4438;50.890;4.726;2022-12-15T09:28:11;53.17;;;32.07;;
8803;SDS011;4438;50.890;4.726;2022-12-15T09:30:38;48.70;;;32.33;;
8803;SDS011;4438;50.890;4.726;2022-12-15T09:33:04;45.97;;;33.07;;
8803;SDS011;4438;50.890;4.726;2022-12-15T09:35:31;48.43;;;33.07;;
8803;SDS011;4438;50.890;4.726;2022-12-15T09:37:57;47.00;;;34.57;;
8803;SDS011;4438;50.890;4.726;2022-12-15T09:40:24;48.43;;;33.37;;
8803;SDS011;4438;50.890;4.726;2022-12-15T09:42:51;47.93;;;34.07;;
8803;SDS011;4438;50.890;4.726;2022-12-15T09:45:19;43.23;;;31.67;;
8803;SDS011;4438;50.890;4.726;2022-12-15T09:47:50;45.07;;;32.70;;
8803;SDS011;4438;50.890;4.726;2022-12-15T09:50:22;42.13;;;30.73;;
8803;SDS011;4438;50.890;4.726;2022-12-15T09:52:52;41.30;;;31.00;;
8803;SDS011;4438;50.890;4.726;2022-12-15T09:55:20;42.13;;;31.47;;
8803;SDS011;4438;50.890;4.726;2022-12-15T10:03:33;48.07;;;32.77;;
8803;SDS011;4438;50.890;4.726;2022-12-15T10:06:10;49.27;;;32.40;;
8803;SDS011;4438;50.890;4.726;2022-12-15T10:08:42;47.47;;;32.50;;
8803;SDS011;4438;50.890;4.726;2022-12-15T10:13:57;42.50;;;31.30;;
8803;SDS011;4438;50.890;4.726;2022-12-15T10:16:35;45.80;;;32.47;;
8803;SDS011;4438;50.890;4.726;2022-12-15T10:19:07;46.07;;;31.87;;
8803;SDS011;4438;50.890;4.726;2022-12-15T10:21:37;45.50;;;31.70;;
8803;SDS011;4438;50.890;4.726;2022-12-15T10:24:09;45.40;;;31.37;;
8803;SDS011;4438;50.890;4.726;2022-12-15T10:26:37;61.13;;;37.20;;
8803;SDS011;4438;50.890;4.726;2022-12-15T10:29:13;47.63;;;33.00;;
8803;SDS011;4438;50.890;4.726;2022-12-15T10:34:08;46.27;;;31.17;;
8803;SDS011;4438;50.890;4.726;2022-12-15T10:36:36;45.70;;;32.20;;
8803;SDS011;4438;50.890;4.726;2022-12-15T10:39:02;44.10;;;32.23;;
8803;SDS011;4438;50.890;4.726;2022-12-15T10:41:30;45.57;;;31.50;;
8803;SDS011;4438;50.890;4.726;2022-12-15T10:43:57;40.37;;;29.97;;
8803;SDS011;4438;50.890;4.726;2022-12-15T10:46:24;41.47;;;28.63;;
8803;SDS011;4438;50.890;4.726;2022-12-15T10:48:57;40.53;;;29.73;;
8803;SDS011;4438;50.890;4.726;2022-12-15T10:56:44;41.00;;;30.20;;
8803;SDS011;4438;50.890;4.726;2022-12-15T10:59:21;39.80;;;29.17;;
8803;SDS011;4438;50.890;4.726;2022-12-15T11:01:48;38.43;;;28.83;;
8803;SDS011;4438;50.890;4.726;2022-12-15T11:04:27;39.83;;;28.77;;
8803;SDS011;4438;50.890;4.726;2022-12-15T11:06:58;39.60;;;30.17;;
8803;SDS011;4438;50.890;4.726;2022-12-15T11:11:57;40.50;;;29.43;;
8803;SDS011;4438;50.890;4.726;2022-12-15T11:14:43;39.47;;;29.20;;
8803;SDS011;4438;50.890;4.726;2022-12-15T11:17:13;34.30;;;26.53;;
8803;SDS011;4438;50.890;4.726;2022-12-15T11:19:43;38.87;;;28.87;;
8803;SDS011;4438;50.890;4.726;2022-12-15T11:24:59;37.03;;;27.17;;
8803;SDS011;4438;50.890;4.726;2022-12-15T11:27:34;33.83;;;26.20;;
8803;SDS011;4438;50.890;4.726;2022-12-15T11:32:39;32.70;;;26.03;;
8803;SDS011;4438;50.890;4.726;2022-12-15T11:35:13;33.53;;;27.13;;
8803;SDS011;4438;50.890;4.726;2022-12-15T11:47:59;35.37;;;28.07;;
8803;SDS011;4438;50.890;4.726;2022-12-15T11:50:32;40.00;;;28.43;;
8803;SDS011;4438;50.890;4.726;2022-12-15T11:55:48;37.47;;;29.60;;
8803;SDS011;4438;50.890;4.726;2022-12-15T12:04:01;39.37;;;29.23;;
8803;SDS011;4438;50.890;4.726;2022-12-15T12:09:18;32.83;;;27.20;;
8803;SDS011;4438;50.890;4.726;2022-12-15T12:11:54;34.77;;;24.93;;
8803;SDS011;4438;50.890;4.726;2022-12-15T12:16:57;30.70;;;23.50;;
8803;SDS011;4438;50.890;4.726;2022-12-15T12:19:32;29.50;;;23.53;;
8803;SDS011;4438;50.890;4.726;2022-12-15T12:22:03;31.07;;;24.40;;
8803;SDS011;4438;50.890;4.726;2022-12-15T12:24:41;30.33;;;23.07;;
8803;SDS011;4438;50.890;4.726;2022-12-15T12:27:11;30.40;;;23.57;;
8803;SDS011;4438;50.890;4.726;2022-12-15T12:37:29;30.20;;;22.73;;
8803;SDS011;4438;50.890;4.726;2022-12-15T12:39:57;30.20;;;23.23;;
8803;SDS011;4438;50.890;4.726;2022-12-15T12:42:31;28.43;;;22.43;;
8803;SDS011;4438;50.890;4.726;2022-12-15T12:45:00;30.53;;;23.20;;
8803;SDS011;4438;50.890;4.726;2022-12-15T12:47:28;29.87;;;22.83;;
8803;SDS011;4438;50.890;4.726;2022-12-15T12:49:57;28.83;;;22.53;;
8803;SDS011;4438;50.890;4.726;2022-12-15T12:52:25;29.67;;;23.83;;
8803;SDS011;4438;50.890;4.726;2022-12-15T12:57:37;32.30;;;23.20;;
8803;SDS011;4438;50.890;4.726;2022-12-15T13:00:12;30.87;;;23.53;;
8803;SDS011;4438;50.890;4.726;2022-12-15T13:02:40;28.40;;;23.53;;
8803;SDS011;4438;50.890;4.726;2022-12-15T13:10:42;31.37;;;23.33;;
8803;SDS011;4438;50.890;4.726;2022-12-15T13:16:20;29.27;;;22.37;;
8803;SDS011;4438;50.890;4.726;2022-12-15T13:27:10;24.03;;;20.27;;
8803;SDS011;4438;50.890;4.726;2022-12-15T13:32:53;22.90;;;19.90;;
8803;SDS011;4438;50.890;4.726;2022-12-15T13:37:48;23.63;;;20.47;;
8803;SDS011;4438;50.890;4.726;2022-12-15T13:42:55;23.67;;;21.27;;
8803;SDS011;4438;50.890;4.726;2022-12-15T13:45:30;23.90;;;21.40;;
8803;SDS011;4438;50.890;4.726;2022-12-15T13:47:58;24.63;;;21.03;;
8803;SDS011;4438;50.890;4.726;2022-12-15T13:50:30;24.37;;;21.13;;
8803;SDS011;4438;50.890;4.726;2022-12-15T13:52:56;24.53;;;21.93;;
8803;SDS011;4438;50.890;4.726;2022-12-15T13:55:29;24.53;;;20.37;;
8803;SDS011;4438;50.890;4.726;2022-12-15T14:00:24;26.00;;;21.93;;
8803;SDS011;4438;50.890;4.726;2022-12-15T14:02:51;25.53;;;22.47;;
8803;SDS011;4438;50.890;4.726;2022-12-15T14:05:28;24.27;;;21.70;;
8803;SDS011;4438;50.890;4.726;2022-12-15T14:12:47;28.17;;;24.40;;
8803;SDS011;4438;50.890;4.726;2022-12-15T14:15:14;27.30;;;24.30;;
8803;SDS011;4438;50.890;4.726;2022-12-15T14:17:42;27.47;;;24.67;;
8803;SDS011;4438;50.890;4.726;2022-12-15T14:20:10;26.87;;;22.80;;
8803;SDS011;4438;50.890;4.726;2022-12-15T14:22:39;26.23;;;22.90;;
8803;SDS011;4438;50.890;4.726;2022-12-15T14:27:39;23.80;;;21.23;;
8803;SDS011;4438;50.890;4.726;2022-12-15T14:32:38;25.70;;;21.13;;
8803;SDS011;4438;50.890;4.726;2022-12-15T14:35:05;25.30;;;22.50;;
8803;SDS011;4438;50.890;4.726;2022-12-15T14:37:31;23.50;;;20.73;;
8803;SDS011;4438;50.890;4.726;2022-12-15T14:39:58;24.43;;;20.03;;
8803;SDS011;4438;50.890;4.726;2022-12-15T14:42:25;27.13;;;21.10;;
8803;SDS011;4438;50.890;4.726;2022-12-15T14:44:52;24.43;;;21.87;;
8803;SDS011;4438;50.890;4.726;2022-12-15T14:47:30;26.77;;;20.73;;
8803;SDS011;4438;50.890;4.726;2022-12-15T14:49:58;31.20;;;24.57;;
8803;SDS011;4438;50.890;4.726;2022-12-15T14:52:29;27.57;;;22.10;;
8803;SDS011;4438;50.890;4.726;2022-12-15T14:54:57;25.97;;;20.83;;
8803;SDS011;4438;50.890;4.726;2022-12-15T14:57:25;26.93;;;21.43;;
8803;SDS011;4438;50.890;4.726;2022-12-15T14:59:51;29.37;;;22.80;;
8803;SDS011;4438;50.890;4.726;2022-12-15T15:04:57;28.30;;;20.40;;
8803;SDS011;4438;50.890;4.726;2022-12-15T15:07:24;28.67;;;20.83;;
8803;SDS011;4438;50.890;4.726;2022-12-15T15:09:51;26.93;;;21.27;;
8803;SDS011;4438;50.890;4.726;2022-12-15T15:12:21;25.60;;;20.57;;
8803;SDS011;4438;50.890;4.726;2022-12-15T15:19:53;25.30;;;20.13;;
8803;SDS011;4438;50.890;4.726;2022-12-15T15:22:25;25.97;;;20.70;;
8803;SDS011;4438;50.890;4.726;2022-12-15T15:24:52;28.57;;;22.43;;
8803;SDS011;4438;50.890;4.726;2022-12-15T15:29:47;32.07;;;23.67;;
8803;SDS011;4438;50.890;4.726;2022-12-15T15:32:14;31.63;;;22.47;;
8803;SDS011;4438;50.890;4.726;2022-12-15T15:34:41;29.10;;;21.80;;
8803;SDS011;4438;50.890;4.726;2022-12-15T15:37:19;26.20;;;20.93;;
8803;SDS011;4438;50.890;4.726;2022-12-15T15:39:48;27.07;;;20.40;;
8803;SDS011;4438;50.890;4.726;2022-12-15T15:42:15;28.37;;;21.07;;
8803;SDS011;4438;50.890;4.726;2022-12-15T15:44:41;29.07;;;21.20;;
8803;SDS011;4438;50.890;4.726;2022-12-15T15:47:20;27.40;;;21.33;;
8803;SDS011;4438;50.890;4.726;2022-12-15T15:49:49;24.53;;;20.30;;
8803;SDS011;4438;50.890;4.726;2022-12-15T15:52:15;28.13;;;21.13;;
8803;SDS011;4438;50.890;4.726;2022-12-15T15:54:41;28.43;;;20.80;;
8803;SDS011;4438;50.890;4.726;2022-12-15T15:57:15;30.73;;;21.60;;
8803;SDS011;4438;50.890;4.726;2022-12-15T15:59:41;26.77;;;20.80;;
8803;SDS011;4438;50.890;4.726;2022-12-15T16:02:11;27.23;;;21.20;;
8803;SDS011;4438;50.890;4.726;2022-12-15T16:04:38;23.70;;;19.73;;
8803;SDS011;4438;50.890;4.726;2022-12-15T16:07:12;26.90;;;21.37;;
8803;SDS011;4438;50.890;4.726;2022-12-15T16:09:40;27.90;;;21.77;;
8803;SDS011;4438;50.890;4.726;2022-12-15T16:12:08;28.40;;;21.97;;
8803;SDS011;4438;50.890;4.726;2022-12-15T16:14:34;27.93;;;21.67;;
8803;SDS011;4438;50.890;4.726;2022-12-15T16:17:00;28.73;;;21.07;;
8803;SDS011;4438;50.890;4.726;2022-12-15T16:19:26;28.53;;;21.57;;
8803;SDS011;4438;50.890;4.726;2022-12-15T16:21:54;27.83;;;22.10;;
8803;SDS011;4438;50.890;4.726;2022-12-15T16:24:21;29.00;;;23.17;;
8803;SDS011;4438;50.890;4.726;2022-12-15T16:26:52;29.60;;;23.07;;
8803;SDS011;4438;50.890;4.726;2022-12-15T16:29:19;32.53;;;24.40;;
8803;SDS011;4438;50.890;4.726;2022-12-15T16:31:46;31.70;;;24.20;;
8803;SDS011;4438;50.890;4.726;2022-12-15T16:34:12;30.57;;;23.80;;
8803;SDS011;4438;50.890;4.726;2022-12-15T16:36:40;35.57;;;24.93;;
8803;SDS011;4438;50.890;4.726;2022-12-15T16:39:21;28.90;;;23.50;;
8803;SDS011;4438;50.890;4.726;2022-12-15T16:41:52;29.80;;;23.77;;
8803;SDS011;4438;50.890;4.726;2022-12-15T16:44:20;32.67;;;23.77;;
8803;SDS011;4438;50.890;4.726;2022-12-15T16:46:46;36.77;;;26.50;;
8803;SDS011;4438;50.890;4.726;2022-12-15T16:49:12;40.27;;;28.77;;
8803;SDS011;4438;50.890;4.726;2022-12-15T16:51:40;43.10;;;31.67;;
8803;SDS011;4438;50.890;4.726;2022-12-15T16:54:08;41.97;;;31.57;;
8803;SDS011;4438;50.890;4.726;2022-12-15T16:56:40;41.23;;;30.00;;
8803;SDS011;4438;50.890;4.726;2022-12-15T16:59:18;42.40;;;28.73;;
8803;SDS011;4438;50.890;4.726;2022-12-15T17:01:44;39.53;;;29.97;;
8803;SDS011;4438;50.890;4.726;2022-12-15T17:04:10;39.40;;;28.43;;
8803;SDS011;4438;50.890;4.726;2022-12-15T17:06:37;37.80;;;27.57;;
8803;SDS011;4438;50.890;4.726;2022-12-15T17:09:03;33.67;;;26.07;;
8803;SDS011;4438;50.890;4.726;2022-12-15T17:11:30;32.53;;;26.20;;
8803;SDS011;4438;50.890;4.726;2022-12-15T17:13:59;34.17;;;27.07;;
8803;SDS011;4438;50.890;4.726;2022-12-15T17:16:26;37.53;;;28.40;;
8803;SDS011;4438;50.890;4.726;2022-12-15T17:18:52;37.57;;;27.93;;
8803;SDS011;4438;50.890;4.726;2022-12-15T17:21:19;39.50;;;28.13;;
8803;SDS011;4438;50.890;4.726;2022-12-15T17:23:47;35.93;;;26.73;;